createdAt,value
2022-10-15T00:00:01.954Z,5.10
2022-10-15T00:02:44.568Z,4.90
2022-10-15T00:05:22.675Z,4.70
2022-10-15T00:08:04.189Z,3.80
2022-10-15T00:10:42.048Z,3.50
2022-10-15T00:13:34.608Z,4.20
2022-10-15T00:16:18.926Z,3.40
2022-10-15T00:18:56.556Z,4.80
2022-10-15T00:21:45.622Z,4.50
2022-10-15T00:24:27.484Z,5.10
2022-10-15T00:27:04.292Z,4.50
2022-10-15T00:29:40.086Z,3.20
2022-10-15T00:32:15.245Z,4.50
2022-10-15T00:34:57.832Z,4.50
2022-10-15T00:37:47.271Z,3.40
2022-10-15T00:40:25.655Z,3.50
2022-10-15T00:43:03.330Z,3.20
2022-10-15T00:48:14.125Z,3.40
2022-10-15T00:50:51.461Z,6.70
2022-10-15T00:53:32.394Z,3.60
2022-10-15T00:56:10.248Z,4.30
2022-10-15T00:58:46.733Z,3.80
2022-10-15T01:01:39.174Z,4.70
2022-10-15T01:04:28.817Z,4.90
2022-10-15T01:07:05.803Z,4.40
2022-10-15T01:09:37.246Z,4.90
2022-10-15T01:12:29.437Z,3.90
2022-10-15T01:15:13.266Z,5.10
2022-10-15T01:17:57.171Z,5.90
2022-10-15T01:21:12.854Z,4.60
2022-10-15T01:24:13.188Z,5.70
2022-10-15T01:27:25.028Z,4.10
2022-10-15T01:30:29.483Z,3.30
2022-10-15T01:33:33.218Z,12.00
2022-10-15T01:36:22.432Z,4.40
2022-10-15T01:39:03.226Z,3.40
2022-10-15T01:41:43.521Z,3.50
2022-10-15T01:44:26.397Z,4.50
2022-10-15T01:47:06.892Z,5.40
2022-10-15T01:49:49.475Z,5.30
2022-10-15T01:52:41.787Z,5.30
2022-10-15T01:55:23.003Z,3.70
2022-10-15T01:58:03.899Z,4.20
2022-10-15T02:00:40.153Z,9.60
2022-10-15T02:03:16.274Z,3.40
2022-10-15T02:06:04.710Z,5.10
2022-10-15T02:08:48.477Z,4.00
2022-10-15T02:11:26.725Z,4.10
2022-10-15T02:14:07.172Z,5.60
2022-10-15T02:16:48.262Z,5.20
2022-10-15T02:19:24.269Z,3.70
2022-10-15T02:22:02.944Z,4.30
2022-10-15T02:24:40.374Z,4.90
2022-10-15T02:27:14.656Z,5.00
2022-10-15T02:29:50.647Z,4.60
2022-10-15T02:32:23.943Z,4.90
2022-10-15T02:34:56.075Z,5.40
2022-10-15T02:37:30.996Z,4.30
2022-10-15T02:40:03.857Z,4.50
2022-10-15T02:42:35.148Z,3.80
2022-10-15T02:45:07.537Z,4.50
2022-10-15T02:47:38.083Z,4.40
2022-10-15T02:50:10.975Z,5.30
2022-10-15T02:52:41.316Z,4.40
2022-10-15T02:55:12.362Z,3.90
2022-10-15T02:57:43.185Z,3.90
2022-10-15T03:00:16.666Z,4.20
2022-10-15T03:02:47.187Z,5.50
2022-10-15T03:05:17.736Z,4.50
2022-10-15T03:07:48.407Z,4.30
2022-10-15T03:10:19.238Z,6.10
2022-10-15T03:12:49.604Z,5.40
2022-10-15T03:15:20.916Z,4.10
2022-10-15T03:17:51.218Z,4.40
2022-10-15T03:20:21.536Z,4.60
2022-10-15T03:22:52.639Z,4.60
2022-10-15T03:25:22.932Z,4.20
2022-10-15T03:27:53.832Z,4.70
2022-10-15T03:30:24.193Z,5.30
2022-10-15T03:32:54.820Z,4.60
2022-10-15T03:35:25.909Z,4.20
2022-10-15T03:37:56.212Z,5.80
2022-10-15T03:40:26.942Z,3.70
2022-10-15T03:42:57.513Z,4.50
2022-10-15T03:45:28.312Z,4.00
2022-10-15T03:47:59.304Z,5.40
2022-10-15T03:50:29.861Z,5.00
2022-10-15T03:53:00.245Z,5.40
2022-10-15T03:55:30.729Z,5.20
2022-10-15T03:58:01.301Z,5.50
2022-10-15T04:00:31.689Z,7.20
2022-10-15T04:03:02.516Z,6.50
2022-10-15T04:05:32.856Z,9.00
2022-10-15T04:08:03.520Z,5.70
2022-10-15T04:10:33.816Z,4.50
2022-10-15T04:13:04.114Z,4.20
2022-10-15T04:15:34.691Z,3.00
2022-10-15T04:18:05.393Z,4.80
2022-10-15T04:20:36.424Z,5.20
2022-10-15T04:23:07.364Z,4.70
2022-10-15T04:25:38.674Z,5.30
2022-10-15T04:28:09.652Z,6.90
2022-10-15T04:30:39.974Z,5.80
2022-10-15T04:33:10.946Z,6.60
2022-10-15T04:35:41.567Z,5.20
2022-10-15T04:38:12.309Z,4.80
2022-10-15T04:40:43.279Z,5.80
2022-10-15T04:43:14.561Z,5.90
2022-10-15T04:45:45.243Z,4.80
2022-10-15T04:48:16.217Z,5.20
2022-10-15T04:50:47.111Z,4.80
2022-10-15T04:53:17.770Z,6.10
2022-10-15T04:55:49.122Z,4.50
2022-10-15T04:58:19.974Z,5.90
2022-10-15T05:00:50.935Z,5.60
2022-10-15T05:03:21.406Z,4.70
2022-10-15T05:05:52.707Z,7.90
2022-10-15T05:08:23.718Z,6.20
2022-10-15T05:10:54.071Z,5.60
2022-10-15T05:13:24.993Z,4.80
2022-10-15T05:15:55.969Z,5.90
2022-10-15T05:18:27.173Z,6.90
2022-10-15T05:21:02.190Z,4.40
2022-10-15T05:23:32.974Z,4.80
2022-10-15T05:26:04.748Z,4.80
2022-10-15T05:28:36.117Z,4.60
2022-10-15T05:31:14.851Z,4.60
2022-10-15T05:33:50.229Z,4.30
2022-10-15T05:36:23.490Z,3.00
2022-10-15T05:38:55.746Z,3.70
2022-10-15T05:41:27.101Z,3.90
2022-10-15T05:43:59.062Z,4.00
2022-10-15T05:46:30.072Z,5.20
2022-10-15T05:49:01.283Z,5.00
2022-10-15T05:51:32.153Z,6.00
2022-10-15T05:54:03.215Z,5.20
2022-10-15T05:56:33.869Z,6.30
2022-10-15T05:59:04.817Z,6.20
2022-10-15T06:01:36.397Z,3.80
2022-10-15T06:04:07.121Z,5.00
2022-10-15T06:06:37.552Z,8.90
2022-10-15T06:09:08.235Z,9.30
2022-10-15T06:11:39.816Z,8.00
2022-10-15T06:14:11.485Z,7.40
2022-10-15T06:16:42.135Z,6.80
2022-10-15T06:19:12.625Z,3.70
2022-10-15T06:21:43.674Z,4.10
2022-10-15T06:24:14.537Z,5.40
2022-10-15T06:26:45.026Z,4.30
2022-10-15T06:29:16.019Z,6.50
2022-10-15T06:31:46.681Z,4.00
2022-10-15T06:34:17.378Z,4.10
2022-10-15T06:36:47.801Z,4.10
2022-10-15T06:39:18.237Z,4.50
2022-10-15T06:41:48.617Z,5.00
2022-10-15T06:44:19.169Z,5.80
2022-10-15T06:46:49.564Z,5.30
2022-10-15T06:49:20.532Z,5.10
2022-10-15T06:51:51.151Z,4.30
2022-10-15T06:54:21.931Z,4.60
2022-10-15T06:56:53.020Z,5.30
2022-10-15T06:59:24.215Z,3.80
2022-10-15T07:01:54.638Z,6.20
2022-10-15T07:04:26.798Z,5.80
2022-10-15T07:06:57.533Z,7.60
2022-10-15T07:09:28.633Z,5.50
2022-10-15T07:11:59.880Z,3.70
2022-10-15T07:14:30.260Z,3.40
2022-10-15T07:17:01.405Z,10.60
2022-10-15T07:19:31.863Z,9.70
2022-10-15T07:22:02.903Z,5.00
2022-10-15T07:24:34.004Z,5.10
2022-10-15T07:27:08.227Z,5.60
2022-10-15T07:29:47.852Z,5.00
2022-10-15T07:32:18.343Z,6.00
2022-10-15T07:34:49.188Z,6.00
2022-10-15T07:37:20.478Z,8.50
2022-10-15T07:39:51.356Z,8.70
2022-10-15T07:42:21.887Z,11.30
2022-10-15T07:44:52.348Z,9.60
2022-10-15T07:47:23.191Z,9.30
2022-10-15T07:49:53.842Z,9.10
2022-10-15T07:52:25.514Z,10.60
2022-10-15T07:54:56.208Z,6.70
2022-10-15T07:57:26.663Z,7.60
2022-10-15T07:59:57.095Z,8.60
2022-10-15T08:02:28.291Z,8.40
2022-10-15T08:04:58.746Z,10.70
2022-10-15T08:07:29.308Z,14.50
2022-10-15T08:09:59.825Z,10.30
2022-10-15T08:12:30.297Z,8.50
2022-10-15T08:15:01.176Z,11.00
2022-10-15T08:17:32.332Z,9.80
2022-10-15T08:20:02.867Z,10.90
2022-10-15T08:22:33.927Z,11.40
2022-10-15T08:25:05.215Z,11.60
2022-10-15T08:27:36.356Z,10.80
2022-10-15T08:30:08.625Z,11.50
2022-10-15T08:32:39.799Z,12.90
2022-10-15T08:35:11.254Z,16.00
2022-10-15T08:37:41.660Z,15.10
2022-10-15T08:40:16.138Z,13.60
2022-10-15T08:42:51.052Z,11.90
2022-10-15T08:45:29.369Z,11.40
2022-10-15T08:48:05.043Z,14.20
2022-10-15T08:50:41.515Z,9.50
2022-10-15T08:53:16.344Z,14.80
2022-10-15T08:55:51.097Z,11.90
2022-10-15T08:58:25.441Z,9.40
2022-10-15T09:00:59.038Z,10.50
2022-10-15T09:03:40.105Z,8.80
2022-10-15T09:06:18.913Z,11.10
2022-10-15T09:09:00.241Z,12.30
2022-10-15T09:11:40.406Z,11.20
2022-10-15T09:14:16.446Z,10.70
2022-10-15T09:16:49.587Z,9.90
2022-10-15T09:19:22.544Z,9.00
2022-10-15T09:21:54.228Z,10.60
2022-10-15T09:24:26.506Z,9.40
2022-10-15T09:27:07.691Z,10.60
2022-10-15T09:29:45.352Z,10.20
2022-10-15T09:34:54.283Z,9.40
2022-10-15T09:37:31.086Z,9.90
2022-10-15T09:40:19.228Z,15.60
2022-10-15T09:42:54.252Z,14.00
2022-10-15T09:45:25.301Z,11.70
2022-10-15T09:48:00.895Z,12.70
2022-10-15T09:50:41.398Z,13.80
2022-10-15T09:53:23.255Z,10.30
2022-10-15T09:56:04.705Z,12.40
2022-10-15T09:58:41.039Z,9.40
2022-10-15T10:01:20.303Z,12.20
2022-10-15T10:03:55.335Z,11.80
2022-10-15T10:06:26.352Z,12.10
2022-10-15T10:08:59.674Z,11.40
2022-10-15T10:11:47.284Z,11.00
2022-10-15T10:14:26.737Z,12.50
2022-10-15T10:17:17.731Z,12.10
2022-10-15T10:20:05.756Z,9.30
2022-10-15T10:22:47.673Z,10.30
2022-10-15T10:25:33.394Z,9.60
2022-10-15T10:28:15.147Z,11.40
2022-10-15T10:30:54.363Z,10.30
2022-10-15T10:33:28.518Z,13.10
2022-10-15T10:36:00.307Z,13.30
2022-10-15T10:38:33.646Z,10.60
2022-10-15T10:41:08.456Z,10.10
2022-10-15T10:43:39.849Z,8.70
2022-10-15T10:46:22.551Z,11.30
2022-10-15T10:48:54.977Z,10.20
2022-10-15T10:51:27.896Z,9.50
2022-10-15T10:54:00.444Z,8.50
2022-10-15T10:56:35.678Z,10.00
2022-10-15T10:59:15.090Z,10.60
2022-10-15T11:01:45.587Z,9.80
2022-10-15T11:04:26.077Z,7.90
2022-10-15T11:07:04.949Z,8.10
2022-10-15T11:10:00.523Z,7.50
2022-10-15T11:12:45.109Z,7.30
2022-10-15T11:15:28.842Z,5.90
2022-10-15T11:18:10.973Z,4.70
2022-10-15T11:20:59.793Z,4.60
2022-10-15T11:23:57.827Z,3.30
2022-10-15T11:26:52.061Z,3.00
2022-10-15T11:29:37.422Z,4.20
2022-10-15T11:32:23.308Z,3.50
2022-10-15T11:35:12.288Z,4.30
2022-10-15T11:37:53.397Z,3.10
2022-10-15T11:40:34.748Z,5.10
2022-10-15T11:43:14.945Z,3.90
2022-10-15T11:46:01.397Z,4.90
2022-10-15T11:48:47.172Z,2.90
2022-10-15T11:51:27.619Z,3.60
2022-10-15T11:54:23.055Z,2.50
2022-10-15T11:56:57.010Z,2.20
2022-10-15T11:59:37.057Z,3.00
2022-10-15T12:02:13.983Z,2.20
2022-10-15T12:04:48.604Z,2.40
2022-10-15T12:07:24.917Z,3.40
2022-10-15T12:10:00.836Z,2.90
2022-10-15T12:12:44.057Z,2.70
2022-10-15T12:15:25.711Z,2.30
2022-10-15T12:18:05.141Z,2.10
2022-10-15T12:20:35.919Z,2.60
2022-10-15T12:23:06.231Z,2.00
2022-10-15T12:25:46.332Z,3.10
2022-10-15T12:28:20.628Z,2.00
2022-10-15T12:30:59.843Z,2.00
2022-10-15T12:33:36.499Z,1.90
2022-10-15T12:36:21.478Z,2.00
2022-10-15T12:39:00.655Z,1.90
2022-10-15T12:41:43.760Z,1.90
2022-10-15T12:44:22.105Z,1.90
2022-10-15T12:46:53.263Z,1.70
2022-10-15T12:50:00.551Z,1.90
2022-10-15T12:52:56.351Z,2.20
2022-10-15T12:55:33.716Z,2.50
2022-10-15T12:58:30.359Z,2.00
2022-10-15T13:01:07.590Z,1.90
2022-10-15T13:03:41.937Z,1.50
2022-10-15T13:06:27.369Z,2.60
2022-10-15T13:09:05.724Z,2.00
2022-10-15T13:11:42.719Z,2.90
2022-10-15T13:14:26.219Z,2.80
2022-10-15T13:16:58.152Z,2.60
2022-10-15T13:19:32.007Z,2.90
2022-10-15T13:22:05.397Z,6.10
2022-10-15T13:24:45.486Z,2.00
2022-10-15T13:27:25.292Z,1.80
2022-10-15T13:30:01.170Z,2.20
2022-10-15T13:32:36.493Z,2.10
2022-10-15T13:35:15.345Z,2.80
2022-10-15T13:37:46.849Z,2.10
2022-10-15T13:40:24.471Z,4.30
2022-10-15T13:45:33.828Z,2.50
2022-10-15T13:48:04.815Z,2.10
2022-10-15T13:50:38.147Z,5.20
2022-10-15T13:53:19.246Z,1.70
2022-10-15T13:55:52.278Z,2.30
2022-10-15T13:58:27.538Z,2.00
2022-10-15T14:01:01.490Z,2.00
2022-10-15T14:03:33.762Z,3.90
2022-10-15T14:06:17.779Z,1.90
2022-10-15T14:08:49.976Z,2.50
2022-10-15T14:11:20.888Z,1.60
2022-10-15T14:13:53.159Z,2.00
2022-10-15T14:16:29.118Z,1.60
2022-10-15T14:19:10.112Z,1.40
2022-10-15T14:21:48.491Z,1.60
2022-10-15T14:24:21.400Z,1.20
2022-10-15T14:26:52.939Z,1.30
2022-10-15T14:29:28.343Z,2.20
2022-10-15T14:31:59.050Z,1.40
2022-10-15T14:34:38.600Z,1.20
2022-10-15T14:37:36.319Z,1.40
2022-10-15T14:40:16.399Z,1.50
2022-10-15T14:42:48.542Z,1.40
2022-10-15T14:45:25.414Z,1.20
2022-10-15T14:47:58.278Z,1.30
2022-10-15T14:50:31.818Z,1.60
2022-10-15T14:53:07.888Z,1.10
2022-10-15T14:55:43.030Z,0.80
2022-10-15T14:58:18.692Z,1.00
2022-10-15T15:00:55.544Z,1.10
2022-10-15T15:03:31.429Z,1.40
2022-10-15T15:06:02.045Z,0.90
2022-10-15T15:08:33.307Z,0.80
2022-10-15T15:11:06.790Z,0.70
2022-10-15T15:13:42.621Z,1.20
2022-10-15T15:16:15.071Z,0.90
2022-10-15T15:18:46.615Z,0.80
2022-10-15T15:21:22.540Z,0.90
2022-10-15T15:23:53.688Z,0.70
2022-10-15T15:26:25.051Z,1.10
2022-10-15T15:28:56.040Z,0.80
2022-10-15T15:31:29.053Z,1.20
2022-10-15T15:33:59.776Z,0.80
2022-10-15T15:36:30.187Z,1.10
2022-10-15T15:39:01.002Z,1.40
2022-10-15T15:41:33.978Z,1.30
2022-10-15T15:44:07.376Z,0.80
2022-10-15T15:46:37.995Z,0.80
2022-10-15T15:49:09.030Z,1.00
2022-10-15T15:51:42.189Z,0.70
2022-10-15T15:54:12.726Z,0.90
2022-10-15T15:59:19.616Z,1.30
2022-10-15T16:01:50.146Z,0.80
2022-10-15T16:04:21.953Z,0.90
2022-10-15T16:06:52.403Z,1.40
2022-10-15T16:09:23.602Z,1.00
2022-10-15T16:11:54.525Z,0.80
2022-10-15T16:14:25.310Z,1.10
2022-10-15T16:16:55.681Z,1.00
2022-10-15T16:19:26.312Z,0.80
2022-10-15T16:21:57.078Z,0.70
2022-10-15T16:24:27.601Z,0.80
2022-10-15T16:26:58.653Z,0.90
2022-10-15T16:29:29.185Z,0.90
2022-10-15T16:31:59.608Z,1.00
2022-10-15T16:34:30.392Z,1.80
2022-10-15T16:37:01.093Z,0.90
2022-10-15T16:39:32.170Z,1.50
2022-10-15T16:42:06.066Z,1.10
2022-10-15T16:44:36.960Z,1.20
2022-10-15T16:47:07.320Z,1.10
2022-10-15T16:49:37.714Z,1.10
2022-10-15T16:52:08.154Z,1.00
2022-10-15T16:54:39.409Z,1.00
2022-10-15T16:57:10.374Z,2.20
2022-10-15T16:59:40.811Z,1.00
2022-10-15T17:02:11.627Z,4.10
2022-10-15T17:04:43.168Z,1.20
2022-10-15T17:07:13.624Z,1.20
2022-10-15T17:09:45.170Z,1.30
2022-10-15T17:12:16.312Z,1.70
2022-10-15T17:14:51.836Z,1.20
2022-10-15T17:17:22.376Z,1.20
2022-10-15T17:19:53.582Z,0.90
2022-10-15T17:22:25.209Z,1.00
2022-10-15T17:24:55.773Z,1.00
2022-10-15T17:27:26.569Z,1.30
2022-10-15T17:29:57.578Z,1.30
2022-10-15T17:32:28.457Z,2.80
2022-10-15T17:35:03.684Z,1.20
2022-10-15T17:40:12.550Z,3.50
2022-10-15T17:42:43.384Z,1.20
2022-10-15T17:45:14.234Z,3.50
2022-10-15T17:47:45.167Z,1.60
2022-10-15T17:50:16.063Z,1.60
2022-10-15T17:52:46.795Z,1.80
2022-10-15T17:55:17.946Z,1.60
2022-10-15T17:57:48.268Z,1.70
2022-10-15T18:00:19.018Z,1.40
2022-10-15T18:02:52.111Z,1.50
2022-10-15T18:05:22.856Z,1.60
2022-10-15T18:07:53.527Z,1.50
2022-10-15T18:10:23.930Z,1.50
2022-10-15T18:12:54.368Z,6.10
2022-10-15T18:15:24.876Z,1.50
2022-10-15T18:17:55.729Z,1.60
2022-10-15T18:20:26.114Z,1.50
2022-10-15T18:22:56.526Z,1.20
2022-10-15T18:25:26.917Z,1.70
2022-10-15T18:27:57.889Z,1.90
2022-10-15T18:30:28.467Z,2.00
2022-10-15T18:32:59.009Z,1.70
2022-10-15T18:35:29.895Z,1.60
2022-10-15T18:38:00.226Z,1.40
2022-10-15T18:40:34.318Z,1.60
2022-10-15T18:43:07.278Z,1.60
2022-10-15T18:45:39.212Z,1.50
2022-10-15T18:48:09.817Z,1.80
2022-10-15T18:50:44.122Z,1.50
2022-10-15T18:53:14.485Z,1.40
2022-10-15T18:55:44.828Z,5.40
2022-10-15T18:58:15.109Z,1.20
2022-10-15T19:00:45.493Z,1.80
2022-10-15T19:03:15.977Z,1.40
2022-10-15T19:05:48.346Z,1.70
2022-10-15T19:08:20.725Z,1.50
2022-10-15T19:10:52.265Z,1.50
2022-10-15T19:13:22.605Z,1.50
2022-10-15T19:15:53.285Z,1.60
2022-10-15T19:18:23.739Z,1.50
2022-10-15T19:20:54.193Z,1.40
2022-10-15T19:23:24.994Z,1.90
2022-10-15T19:25:57.676Z,1.60
2022-10-15T19:28:28.879Z,1.40
2022-10-15T19:31:01.192Z,1.70
2022-10-15T19:33:33.157Z,2.10
2022-10-15T19:36:03.532Z,1.50
2022-10-15T19:38:34.604Z,1.60
2022-10-15T19:41:06.676Z,1.50
2022-10-15T19:43:39.219Z,1.50
2022-10-15T19:46:10.395Z,1.40
2022-10-15T19:48:40.917Z,1.70
2022-10-15T19:51:11.705Z,1.40
2022-10-15T19:53:42.072Z,1.40
2022-10-15T19:56:13.305Z,1.40
2022-10-15T19:58:43.915Z,1.60
2022-10-15T20:01:14.546Z,1.70
2022-10-15T20:03:45.566Z,1.70
2022-10-15T20:06:16.133Z,1.80
2022-10-15T20:08:47.312Z,1.80
2022-10-15T20:11:18.975Z,1.50
2022-10-15T20:13:49.527Z,6.00
2022-10-15T20:16:22.978Z,1.90
2022-10-15T20:18:56.153Z,1.40
2022-10-15T20:21:26.814Z,1.60
2022-10-15T20:24:04.943Z,1.60
2022-10-15T20:26:37.579Z,3.20
2022-10-15T20:29:09.777Z,1.70
2022-10-15T20:31:42.552Z,1.60
2022-10-15T20:34:14.040Z,1.60
2022-10-15T20:36:47.157Z,1.80
2022-10-15T20:39:19.054Z,1.40
2022-10-15T20:41:51.949Z,1.60
2022-10-15T20:44:24.769Z,1.60
2022-10-15T20:47:01.523Z,2.00
2022-10-15T20:49:37.360Z,1.60
2022-10-15T20:52:09.940Z,1.50
2022-10-15T20:54:42.247Z,1.30
2022-10-15T20:57:15.067Z,2.50
2022-10-15T20:59:46.458Z,1.40
2022-10-15T21:02:17.341Z,1.50
2022-10-15T21:04:52.757Z,2.00
2022-10-15T21:07:24.594Z,1.40
2022-10-15T21:09:55.013Z,1.70
2022-10-15T21:12:25.868Z,1.50
2022-10-15T21:14:56.955Z,1.50
2022-10-15T21:17:27.756Z,1.50
2022-10-15T21:19:58.508Z,1.40
2022-10-15T21:22:29.336Z,1.60
2022-10-15T21:25:00.045Z,1.50
2022-10-15T21:27:30.546Z,1.40
2022-10-15T21:30:00.933Z,7.90
2022-10-15T21:32:32.452Z,2.90
2022-10-15T21:35:03.730Z,4.50
2022-10-15T21:37:37.387Z,1.90
2022-10-15T21:40:10.190Z,1.80
2022-10-15T21:42:40.930Z,1.60
2022-10-15T21:45:12.982Z,1.50
2022-10-15T21:47:43.651Z,1.60
2022-10-15T21:50:14.063Z,1.50
2022-10-15T21:52:45.377Z,2.50
2022-10-15T21:55:16.149Z,1.50
2022-10-15T21:57:46.836Z,1.50
2022-10-15T22:00:19.128Z,1.60
2022-10-15T22:02:53.003Z,1.80
2022-10-15T22:05:23.815Z,1.60
2022-10-15T22:07:54.248Z,1.70
2022-10-15T22:10:24.719Z,1.50
2022-10-15T22:12:55.681Z,1.70
2022-10-15T22:15:26.312Z,1.70
2022-10-15T22:17:57.076Z,1.60
2022-10-15T22:20:28.286Z,1.60
2022-10-15T22:22:58.614Z,1.70
2022-10-15T22:25:29.036Z,1.40
2022-10-15T22:28:00.228Z,1.80
2022-10-15T22:30:31.125Z,1.50
2022-10-15T22:33:02.274Z,2.10
2022-10-15T22:35:35.040Z,1.90
2022-10-15T22:38:05.413Z,1.30
2022-10-15T22:40:35.831Z,1.50
2022-10-15T22:43:06.541Z,1.60
2022-10-15T22:45:37.376Z,1.90
2022-10-15T22:48:08.001Z,1.60
2022-10-15T22:50:38.655Z,1.80
2022-10-15T22:53:09.954Z,1.30
2022-10-15T22:55:40.612Z,1.60
2022-10-15T22:58:10.948Z,1.60
2022-10-15T23:00:41.289Z,1.60
2022-10-15T23:03:12.122Z,2.30
2022-10-15T23:05:42.494Z,1.50
2022-10-15T23:08:12.799Z,1.50
2022-10-15T23:10:43.218Z,1.60
2022-10-15T23:13:14.106Z,1.60
2022-10-15T23:15:44.659Z,1.60
2022-10-15T23:18:14.982Z,1.70
2022-10-15T23:20:45.429Z,1.60
2022-10-15T23:23:15.852Z,1.90
2022-10-15T23:25:46.536Z,1.40
2022-10-15T23:28:16.871Z,1.50
2022-10-15T23:30:47.235Z,1.80
2022-10-15T23:33:17.920Z,1.60
2022-10-15T23:35:56.768Z,1.50
2022-10-15T23:38:28.269Z,1.70
2022-10-15T23:41:10.027Z,1.40
2022-10-15T23:43:40.608Z,1.40
2022-10-15T23:46:11.869Z,1.40
2022-10-15T23:48:42.300Z,1.40
2022-10-15T23:51:19.396Z,1.30
2022-10-15T23:53:50.635Z,1.50
2022-10-15T23:56:21.697Z,2.40
2022-10-15T23:58:53.144Z,1.30
